Humidity-temperature Sensor

Selected Measurement Type: Air Temperature

 
Air Temperature [°C]     6 entries per hour
Showing data from 8/26/2018 (00:00:00 Z) to 8/23/2018 (00:01:00 Z)
Previous Next [ Day | 3-Days | 7-Days ]
First Last
Prev [ Day | 3-Days | 7-Days ] Next
First Last

Start Time:     :
End Time:     :     
Time (in GMT) :00 :50 :40 :30 :20 :10
Previous Next [ Day | 3-Days | 7-Days ]
First Last
Prev [ Day | 3-Days | 7-Days ] Next
First Last


123 => good data
MM => data is determined as missing
-- => data not received/configured
Back to Top Back to Top
8/26/2018 00:00 to 23:10 22.39 22.34 22.18 22.40 22.56 22.50
8/25/2018 23:00 to 22:10 22.50 22.64 22.75 22.77 22.85 22.79
8/25/2018 22:00 to 21:10 22.70 22.69 22.53 22.53 22.56 22.63
8/25/2018 21:00 to 20:10 22.43 22.50 22.55 22.58 22.63 22.63
8/25/2018 20:00 to 19:10 22.58 22.54 22.75 22.57 22.60 22.63
8/25/2018 19:00 to 18:10 22.46 22.63 22.49 22.52 22.50 22.68
8/25/2018 18:00 to 17:10 22.64 22.75 22.50 22.52 22.62 22.42
8/25/2018 17:00 to 16:10 22.49 22.56 22.48 22.52 22.42 22.52
8/25/2018 16:00 to 15:10 22.42 22.41 22.42 22.53 22.37 22.29
8/25/2018 15:00 to 14:10 22.30 22.39 22.32 22.37 22.26 22.31
8/25/2018 14:00 to 13:10 22.27 22.36 22.28 22.23 22.16 21.97
8/25/2018 13:00 to 12:10 22.04 22.00 21.93 21.92 22.09 22.20
8/25/2018 12:00 to 11:10 22.14 22.19 21.99 22.19 22.33 22.18
8/25/2018 11:00 to 10:10 22.11 22.01 21.92 22.01 22.07 22.05
8/25/2018 10:00 to 9:10 22.09 21.98 22.09 22.16 22.20 22.20
8/25/2018 09:00 to 8:10 22.19 21.94 22.14 22.09 21.99 22.02
8/25/2018 08:00 to 7:10 22.07 22.12 21.95 22.18 22.38 22.06
8/25/2018 07:00 to 6:10 22.23 22.25 22.20 22.13 22.19 22.22
8/25/2018 06:00 to 5:10 22.04 22.11 22.15 22.15 22.15 22.22
8/25/2018 05:00 to 4:10 22.15 22.05 22.30 21.97 22.03 22.16
8/25/2018 04:00 to 3:10 22.10 22.24 22.05 22.09 22.10 22.50
8/25/2018 03:00 to 2:10 22.19 22.26 22.00 22.25 22.28 22.10
8/25/2018 02:00 to 1:10 22.04 21.94 21.83 21.38 21.33 21.45
8/25/2018 01:00 to 0:10 21.64 22.23 22.38 22.21 22.29 22.17
8/25/2018 00:00 to 23:10 22.23 22.26 22.19 22.16 22.20 21.98
8/24/2018 23:00 to 22:10 21.88 22.04 22.41 22.36 22.17 22.05
8/24/2018 22:00 to 21:10 21.59 21.67 21.62 21.62 21.54 21.75
8/24/2018 21:00 to 20:10 21.88 21.65 21.43 21.29 21.26 21.84
8/24/2018 20:00 to 19:10 22.44 22.23 22.03 22.07 22.04 21.96
8/24/2018 19:00 to 18:10 22.05 21.79 21.91 22.15 21.98 22.22
8/24/2018 18:00 to 17:10 22.32 22.23 22.30 22.42 22.30 22.23
8/24/2018 17:00 to 16:10 22.42 22.37 22.27 22.36 22.20 22.22
8/24/2018 16:00 to 15:10 22.21 22.09 22.18 22.10 21.63 21.33
8/24/2018 15:00 to 14:10 21.50 21.94 21.52 22.16 21.98 21.95
8/24/2018 14:00 to 13:10 21.91 22.02 22.08 21.84 21.92 21.84
8/24/2018 13:00 to 12:10 22.18 22.08 21.98 21.98 21.72 21.67
8/24/2018 12:00 to 11:10 22.00 21.97 22.00 21.92 21.99 21.92
8/24/2018 11:00 to 10:10 22.11 22.05 21.98 22.06 22.13 22.22
8/24/2018 10:00 to 9:10 22.12 22.15 22.17 22.15 22.11 21.95
8/24/2018 09:00 to 8:10 22.19 22.19 22.28 22.35 22.24 22.22
8/24/2018 08:00 to 7:10 22.33 22.59 22.37 22.42 22.51 22.56
8/24/2018 07:00 to 6:10 22.57 22.49 22.23 22.32 22.03 22.16
8/24/2018 06:00 to 5:10 22.15 22.57 22.27 22.23 22.22 22.04
8/24/2018 05:00 to 4:10 22.12 22.08 22.16 22.39 22.23 22.16
8/24/2018 04:00 to 3:10 22.07 21.95 21.12 21.78 21.93 21.78
8/24/2018 03:00 to 2:10 22.29 22.10 21.74 21.43 21.69 22.05
8/24/2018 02:00 to 1:10 21.37 21.07 21.92 21.34 21.22 21.61
8/24/2018 01:00 to 0:10 22.08 21.85 21.67 21.50 21.83 21.83
8/24/2018 00:00 to 23:10 22.12 21.99 22.18 22.05 22.27 22.17
8/23/2018 23:00 to 22:10 22.42 22.14 21.99 21.53 21.01 21.13
8/23/2018 22:00 to 21:10 21.73 21.55 21.43 21.88 21.60 21.62
8/23/2018 21:00 to 20:10 22.18 22.05 22.28 22.18 22.31 22.20
8/23/2018 20:00 to 19:10 21.76 22.05 21.86 22.15 21.77 21.85
8/23/2018 19:00 to 18:10 21.71 21.94 22.46 22.38 22.43 22.35
8/23/2018 18:00 to 17:10 22.32 22.72 22.54 22.55 22.55 22.59
8/23/2018 17:00 to 16:10 22.66 22.65 22.58 22.26 22.42 22.19
8/23/2018 16:00 to 15:10 22.22 22.14 22.47 22.38 22.55 22.66
8/23/2018 15:00 to 14:10 22.63 22.49 22.48 22.64 22.42 22.44
8/23/2018 14:00 to 13:10 22.13 22.12 22.43 22.32 22.31 22.23
8/23/2018 13:00 to 12:10 22.30 22.17 22.23 22.21 21.97 22.12
8/23/2018 12:00 to 11:10 22.12 22.29 22.00 21.67 22.00 22.02
8/23/2018 11:00 to 10:10 21.80 21.68 21.28 21.55 21.37 21.39
8/23/2018 10:00 to 9:10 21.73 21.58 21.50 21.86 21.35 21.38
8/23/2018 09:00 to 8:10 21.32 21.26 21.87 21.72 21.67 22.01
8/23/2018 08:00 to 7:10 22.03 21.79 21.80 22.35 22.21 22.76
8/23/2018 07:00 to 6:10 22.55 22.43 22.67 22.71 22.83 22.98
8/23/2018 06:00 to 5:10 22.77 22.86 22.90 23.01 23.09 22.84
8/23/2018 05:00 to 4:10 22.95 22.92 22.81 23.04 22.99 23.08
8/23/2018 04:00 to 3:10 22.93 23.12 23.28 23.12 23.09 22.72
8/23/2018 03:00 to 2:10 22.79 22.79 22.79 23.10 23.07 22.88
8/23/2018 02:00 to 1:10 22.97 23.01 23.11 22.99 23.04 22.88
8/23/2018 01:00 to 0:10 23.01 22.92 22.87 22.92 22.93 22.86